Time;durP1;ratioP1;P1;durP2;ratioP2;P2;SDS_P1;SDS_P2;PMS_P1;PMS_P2;Temp;Humidity;BMP_temperature;BMP_pressure;BME280_temperature;BME280_humidity;BME280_pressure;Samples;Min_cycle;Max_cycle;Signal;HPM_P1;HPM_P2
2023/04/05 00:02:09;;;;;;;;;;;21.70;99.90;;;;;;5081255;27;20016;-66
2023/04/05 00:04:37;;;;;;;;;;;21.70;99.90;;;;;;5082189;28;19926;-69
2023/04/05 00:07:07;;;;;;;;;;;21.70;99.90;;;;;;5081480;28;19912;-70
2023/04/05 00:09:33;;;;;;;;;;;21.80;99.90;;;;;;5097442;28;20569;-72
2023/04/05 00:12:00;;;;;;;;;;;21.90;99.90;;;;;;5082267;28;19919;-63
2023/04/05 00:14:26;;;;;;;;;;;21.90;99.90;;;;;;5089193;28;20316;-61
2023/04/05 00:16:53;;;;;;;;;;;21.90;99.90;;;;;;5101123;28;19908;-65
2023/04/05 00:19:21;;;;;;;;;;;22.00;99.90;;;;;;5090796;27;19965;-63
2023/04/05 00:21:48;;;;;;;;;;;22.00;99.90;;;;;;5095023;28;19915;-64
2023/04/05 00:24:15;;;;;;;;;;;22.20;99.90;;;;;;5097911;28;20372;-62
2023/04/05 00:26:43;;;;;;;;;;;22.20;99.90;;;;;;5097868;28;19907;-65
2023/04/05 00:29:09;;;;;;;;;;;22.40;99.90;;;;;;5094986;28;19912;-64
2023/04/05 00:31:36;;;;;;;;;;;22.30;99.90;;;;;;5100408;28;19930;-64
2023/04/05 00:34:04;;;;;;;;;;;22.30;99.90;;;;;;5093928;28;20794;-67
2023/04/05 00:36:31;;;;;;;;;;;22.40;99.90;;;;;;5107931;27;19912;-65
2023/04/05 00:38:58;;;;;;;;;;;22.40;99.90;;;;;;5097939;28;19904;-66
2023/04/05 00:41:24;;;;;;;;;;;22.60;99.90;;;;;;5093302;28;19927;-66
2023/04/05 00:43:51;;;;;;;;;;;22.80;99.90;;;;;;5097669;28;19908;-64
2023/04/05 00:46:18;;;;;;;;;;;23.00;99.90;;;;;;5098321;28;19991;-64
2023/04/05 00:48:44;;;;;;;;;;;23.30;99.90;;;;;;5098156;28;19954;-64
2023/04/05 00:51:11;;;;;;;;;;;23.50;99.90;;;;;;5099055;28;20174;-65
2023/04/05 00:53:39;;;;;;;;;;;23.80;99.90;;;;;;5099313;28;19918;-64
2023/04/05 00:56:06;;;;;;;;;;;23.90;99.90;;;;;;5099721;28;19927;-62
2023/04/05 00:58:33;;;;;;;;;;;24.00;99.90;;;;;;5098013;28;19930;-70
2023/04/05 01:01:06;;;;;;;;;;;24.10;99.90;;;;;;5089805;28;20585;-72
2023/04/05 01:03:35;;;;;;;;;;;24.10;99.90;;;;;;5094447;28;20683;-70
2023/04/05 01:06:22;;;;;;;;;;;24.10;99.90;;;;;;5098324;28;19908;-72
2023/04/05 01:09:05;;;;;;;;;;;24.00;99.90;;;;;;5097547;28;19927;-66
2023/04/05 01:11:33;;;;;;;;;;;24.00;99.90;;;;;;5098493;28;19915;-67
2023/04/05 01:14:00;;;;;;;;;;;24.00;99.90;;;;;;5097880;28;19912;-66
2023/04/05 01:16:27;;;;;;;;;;;24.00;99.90;;;;;;5097518;28;20016;-65
2023/04/05 01:18:57;;;;;;;;;;;23.90;99.90;;;;;;5097484;28;19976;-71
2023/04/05 01:21:23;;;;;;;;;;;24.10;99.90;;;;;;5097805;28;19908;-70
2023/04/05 01:24:08;;;;;;;;;;;24.10;99.90;;;;;;5098412;28;20000;-68
2023/04/05 01:26:45;;;;;;;;;;;24.30;99.90;;;;;;5097199;28;20272;-70
2023/04/05 01:29:21;;;;;;;;;;;24.80;99.90;;;;;;5098590;28;19914;-68
2023/04/05 01:32:00;;;;;;;;;;;25.10;99.90;;;;;;5097219;28;20257;-68
2023/04/05 01:34:27;;;;;;;;;;;25.30;99.90;;;;;;5097605;28;20368;-63
2023/04/05 01:36:55;;;;;;;;;;;25.50;99.90;;;;;;5096838;28;19911;-63
2023/04/05 01:39:23;;;;;;;;;;;25.80;99.70;;;;;;5097851;28;19912;-65
2023/04/05 01:41:50;;;;;;;;;;;26.10;99.60;;;;;;5097657;28;19908;-65
2023/04/05 01:44:17;;;;;;;;;;;26.40;99.30;;;;;;5097944;28;19934;-66
2023/04/05 01:46:44;;;;;;;;;;;26.50;98.10;;;;;;5097659;28;20419;-72
2023/04/05 01:49:11;;;;;;;;;;;26.50;98.30;;;;;;5096779;28;19960;-72
2023/04/05 01:51:40;;;;;;;;;;;26.60;97.80;;;;;;5064739;28;19916;-68
2023/04/05 01:54:07;;;;;;;;;;;26.50;97.70;;;;;;5076218;28;19969;-66
2023/04/05 01:56:34;;;;;;;;;;;26.30;97.40;;;;;;5076742;28;20263;-65
2023/04/05 01:59:01;;;;;;;;;;;26.10;97.20;;;;;;5077672;28;19923;-64
2023/04/05 02:01:28;;;;;;;;;;;26.00;96.20;;;;;;5096683;28;19918;-64
2023/04/05 02:03:54;;;;;;;;;;;26.00;95.40;;;;;;5096732;28;19950;-65
2023/04/05 02:06:21;;;;;;;;;;;26.00;95.30;;;;;;5097369;28;19908;-63
2023/04/05 02:08:48;;;;;;;;;;;26.30;94.90;;;;;;5097553;28;20478;-66
2023/04/05 02:11:15;;;;;;;;;;;26.20;95.10;;;;;;5094016;27;19919;-63
2023/04/05 02:13:41;;;;;;;;;;;26.10;95.20;;;;;;5094257;28;19945;-66
2023/04/05 02:16:08;;;;;;;;;;;26.10;95.20;;;;;;5086483;28;19976;-64
2023/04/05 02:18:37;;;;;;;;;;;26.10;95.70;;;;;;5089660;28;19912;-66
2023/04/05 02:21:05;;;;;;;;;;;26.20;96.00;;;;;;5094457;28;19916;-66
2023/04/05 02:23:32;;;;;;;;;;;26.00;96.10;;;;;;5094950;28;19919;-63
2023/04/05 02:25:59;;;;;;;;;;;26.00;96.60;;;;;;5094642;28;20379;-62
2023/04/05 02:28:26;;;;;;;;;;;25.90;97.00;;;;;;5088898;28;19913;-65
2023/04/05 02:30:53;;;;;;;;;;;25.80;96.10;;;;;;5083030;28;20022;-63
2023/04/05 02:33:21;;;;;;;;;;;25.70;96.10;;;;;;5081371;28;20452;-64
2023/04/05 02:35:52;;;;;;;;;;;25.70;96.40;;;;;;5090222;28;20245;-63
2023/04/05 02:38:19;;;;;;;;;;;25.80;96.50;;;;;;5078383;28;20107;-66
2023/04/05 02:40:46;;;;;;;;;;;25.90;96.40;;;;;;5088743;28;19928;-71
2023/04/05 02:43:13;;;;;;;;;;;26.30;95.20;;;;;;5096442;28;19911;-65
2023/04/05 02:45:39;;;;;;;;;;;26.70;95.10;;;;;;5091925;28;20002;-67
2023/04/05 02:48:06;;;;;;;;;;;27.30;94.70;;;;;;5094910;28;20260;-69
2023/04/05 02:50:33;;;;;;;;;;;28.20;94.30;;;;;;5096554;28;20571;-72
2023/04/05 02:52:59;;;;;;;;;;;29.20;92.70;;;;;;5088124;28;20627;-68
2023/04/05 02:55:28;;;;;;;;;;;30.10;90.90;;;;;;5094879;28;19908;-64
2023/04/05 02:57:59;;;;;;;;;;;31.20;90.70;;;;;;5083947;28;20655;-66
2023/04/05 03:00:27;;;;;;;;;;;32.10;87.60;;;;;;5088982;28;19920;-62
2023/04/05 03:02:53;;;;;;;;;;;33.30;86.40;;;;;;5079634;28;19912;-66
2023/04/05 03:05:21;;;;;;;;;;;34.20;84.30;;;;;;5077276;28;19912;-62
2023/04/05 03:07:49;;;;;;;;;;;34.90;80.00;;;;;;5080378;28;19916;-65
2023/04/05 03:10:17;;;;;;;;;;;35.60;77.80;;;;;;5091587;28;20347;-65
2023/04/05 03:12:47;;;;;;;;;;;36.00;76.70;;;;;;5085646;28;19916;-65
2023/04/05 03:15:13;;;;;;;;;;;36.20;77.50;;;;;;5090123;28;19916;-68
2023/04/05 03:17:42;;;;;;;;;;;36.50;75.20;;;;;;5091014;28;19907;-65
2023/04/05 03:20:10;;;;;;;;;;;36.90;73.40;;;;;;5096012;28;19918;-65
2023/04/05 03:22:36;;;;;;;;;;;36.80;73.60;;;;;;5081135;28;19955;-65
2023/04/05 03:25:03;;;;;;;;;;;37.40;73.40;;;;;;5083293;28;20395;-63
2023/04/05 03:27:30;;;;;;;;;;;38.10;69.90;;;;;;5093179;28;19908;-62
2023/04/05 03:29:57;;;;;;;;;;;38.00;69.40;;;;;;5096478;28;20447;-62
2023/04/05 03:32:24;;;;;;;;;;;38.30;69.50;;;;;;5089910;28;19994;-68
2023/04/05 03:34:50;;;;;;;;;;;37.60;69.20;;;;;;5080836;28;19919;-64
2023/04/05 03:37:17;;;;;;;;;;;37.40;69.40;;;;;;5085588;28;20000;-68
2023/04/05 03:39:44;;;;;;;;;;;37.80;68.50;;;;;;5092278;28;19962;-62
2023/04/05 03:42:10;;;;;;;;;;;37.60;68.90;;;;;;5100098;28;20285;-62
2023/04/05 03:44:37;;;;;;;;;;;37.70;68.90;;;;;;5090727;28;19956;-66
2023/04/05 03:47:04;;;;;;;;;;;38.20;68.50;;;;;;5094513;28;20047;-69
2023/04/05 03:49:30;;;;;;;;;;;39.00;67.20;;;;;;5096501;28;19992;-70
2023/04/05 03:51:57;;;;;;;;;;;39.20;64.70;;;;;;5082625;28;20036;-67
2023/04/05 03:54:23;;;;;;;;;;;38.90;64.80;;;;;;5096090;28;20099;-68
2023/04/05 03:56:51;;;;;;;;;;;38.90;66.00;;;;;;5094560;28;19912;-70
2023/04/05 03:59:17;;;;;;;;;;;39.20;65.90;;;;;;5099436;28;19915;-64
2023/04/05 04:01:44;;;;;;;;;;;39.70;65.20;;;;;;5096996;28;20279;-65
2023/04/05 04:04:12;;;;;;;;;;;39.60;64.10;;;;;;5100421;28;19915;-64
2023/04/05 04:06:39;;;;;;;;;;;39.40;63.80;;;;;;5099901;28;20292;-67
2023/04/05 04:09:05;;;;;;;;;;;39.50;64.30;;;;;;5100039;28;19911;-68
2023/04/05 04:11:32;;;;;;;;;;;39.40;64.40;;;;;;5098500;28;20375;-64
2023/04/05 04:13:58;;;;;;;;;;;39.80;64.00;;;;;;5094632;28;19985;-72
2023/04/05 04:16:25;;;;;;;;;;;39.60;63.40;;;;;;5099047;28;20263;-65
2023/04/05 04:18:53;;;;;;;;;;;39.80;64.20;;;;;;5099896;28;19986;-64
2023/04/05 04:21:23;;;;;;;;;;;39.50;64.10;;;;;;5097770;28;19962;-65
2023/04/05 04:23:51;;;;;;;;;;;39.50;64.40;;;;;;5098445;28;20503;-64
2023/04/05 04:26:25;;;;;;;;;;;39.60;64.00;;;;;;5099223;28;19912;-64
2023/04/05 04:28:52;;;;;;;;;;;39.60;64.10;;;;;;5094639;28;19911;-69
2023/04/05 04:31:20;;;;;;;;;;;39.80;64.10;;;;;;5099588;28;20575;-64
2023/04/05 04:33:48;;;;;;;;;;;40.10;62.80;;;;;;5099852;28;19919;-64
2023/04/05 04:36:17;;;;;;;;;;;40.20;62.80;;;;;;5093862;28;19959;-65
2023/04/05 04:38:43;;;;;;;;;;;40.30;62.40;;;;;;5091029;28;19931;-69
2023/04/05 04:41:10;;;;;;;;;;;40.40;62.20;;;;;;5097831;28;19924;-67
2023/04/05 04:43:41;;;;;;;;;;;40.10;63.20;;;;;;5088664;28;20011;-70
2023/04/05 04:46:10;;;;;;;;;;;40.00;63.50;;;;;;5091137;28;20306;-64
2023/04/05 04:48:37;;;;;;;;;;;40.20;62.40;;;;;;5095914;28;19969;-70
2023/04/05 04:51:04;;;;;;;;;;;40.10;62.80;;;;;;5099972;28;19977;-61
2023/04/05 04:53:30;;;;;;;;;;;39.60;62.20;;;;;;5097931;28;19931;-63
2023/04/05 04:55:57;;;;;;;;;;;39.50;61.70;;;;;;5086995;28;19912;-66
2023/04/05 04:58:24;;;;;;;;;;;39.30;62.40;;;;;;5078831;28;19908;-63
2023/04/05 05:00:51;;;;;;;;;;;39.40;62.10;;;;;;5098545;28;19907;-63
2023/04/05 05:03:18;;;;;;;;;;;39.20;62.00;;;;;;5099322;28;19960;-64
2023/04/05 05:05:46;;;;;;;;;;;38.80;62.50;;;;;;5099135;28;19954;-62
2023/04/05 05:08:13;;;;;;;;;;;39.00;63.10;;;;;;5098551;28;20015;-64
2023/04/05 05:10:39;;;;;;;;;;;39.20;62.80;;;;;;5098017;28;19919;-63
2023/04/05 05:13:06;;;;;;;;;;;39.90;61.70;;;;;;5088942;28;19908;-63
2023/04/05 05:15:33;;;;;;;;;;;40.30;61.30;;;;;;5077639;28;19931;-63
2023/04/05 05:18:00;;;;;;;;;;;39.80;61.80;;;;;;5097070;27;19915;-70
2023/04/05 05:20:27;;;;;;;;;;;39.90;61.70;;;;;;5095751;28;19912;-64
2023/04/05 05:22:54;;;;;;;;;;;40.00;61.80;;;;;;5099125;28;19912;-68
2023/04/05 05:25:21;;;;;;;;;;;40.10;61.20;;;;;;5098198;28;19930;-67
2023/04/05 05:27:49;;;;;;;;;;;40.30;61.10;;;;;;5087511;28;20456;-67
2023/04/05 05:30:16;;;;;;;;;;;40.30;61.30;;;;;;5096899;28;19919;-64
2023/04/05 05:32:43;;;;;;;;;;;39.90;61.20;;;;;;5107676;27;20248;-65
2023/04/05 05:35:10;;;;;;;;;;;39.60;61.30;;;;;;5079770;28;20303;-67
2023/04/05 05:37:36;;;;;;;;;;;40.00;61.10;;;;;;5094894;28;19908;-65
2023/04/05 05:40:06;;;;;;;;;;;39.70;61.60;;;;;;5095323;28;20066;-71
2023/04/05 05:42:33;;;;;;;;;;;39.40;61.80;;;;;;5090577;28;19916;-65
2023/04/05 05:45:03;;;;;;;;;;;39.60;61.70;;;;;;5097277;28;19903;-67
2023/04/05 05:47:30;;;;;;;;;;;39.50;61.10;;;;;;5095736;28;19908;-67
2023/04/05 05:49:57;;;;;;;;;;;39.30;61.30;;;;;;5097636;28;19907;-68
2023/04/05 05:52:24;;;;;;;;;;;38.90;62.20;;;;;;5097648;27;19947;-67
2023/04/05 05:54:51;;;;;;;;;;;39.40;60.70;;;;;;5106358;27;19918;-68
2023/04/05 05:57:17;;;;;;;;;;;39.40;60.80;;;;;;5105158;27;19916;-64
2023/04/05 05:59:44;;;;;;;;;;;39.70;60.40;;;;;;5075677;28;19916;-66
2023/04/05 06:02:11;;;;;;;;;;;39.50;61.10;;;;;;5094082;28;19907;-64
2023/04/05 06:04:37;;;;;;;;;;;39.30;61.60;;;;;;5095454;28;20391;-69
2023/04/05 06:07:04;;;;;;;;;;;39.40;61.20;;;;;;5095764;28;20369;-68
2023/04/05 06:09:34;;;;;;;;;;;39.20;60.80;;;;;;5096345;28;19908;-64
2023/04/05 06:12:01;;;;;;;;;;;38.40;61.50;;;;;;5097462;28;19916;-66
2023/04/05 06:14:28;;;;;;;;;;;36.80;64.00;;;;;;5094222;28;19916;-67
2023/04/05 06:16:55;;;;;;;;;;;34.90;66.50;;;;;;5096648;28;20097;-66
2023/04/05 06:19:22;;;;;;;;;;;33.20;69.60;;;;;;5096729;28;19907;-69
2023/04/05 06:21:49;;;;;;;;;;;32.50;71.20;;;;;;5096014;28;19919;-66
2023/04/05 06:24:15;;;;;;;;;;;32.90;71.00;;;;;;5097600;28;19912;-66
2023/04/05 06:26:42;;;;;;;;;;;33.90;69.50;;;;;;5093501;28;20266;-66
2023/04/05 06:29:09;;;;;;;;;;;34.90;67.90;;;;;;5096569;28;19908;-65
2023/04/05 06:31:36;;;;;;;;;;;35.40;67.10;;;;;;5096408;28;19984;-64
2023/04/05 06:34:02;;;;;;;;;;;36.00;66.10;;;;;;5097096;28;19963;-65
2023/04/05 06:36:30;;;;;;;;;;;36.40;66.40;;;;;;5093914;28;19914;-64
2023/04/05 06:38:58;;;;;;;;;;;36.70;65.40;;;;;;5080785;28;19957;-68
2023/04/05 06:41:26;;;;;;;;;;;36.70;65.40;;;;;;5096073;28;19934;-65
2023/04/05 06:43:52;;;;;;;;;;;36.30;65.70;;;;;;5097228;28;19914;-69
2023/04/05 06:46:19;;;;;;;;;;;35.90;66.10;;;;;;5095711;28;19915;-65
2023/04/05 06:48:47;;;;;;;;;;;35.40;66.50;;;;;;5076180;28;19907;-69
2023/04/05 06:51:13;;;;;;;;;;;34.50;68.10;;;;;;5096511;28;19915;-64
2023/04/05 06:53:40;;;;;;;;;;;34.00;68.70;;;;;;5096157;28;19915;-65
2023/04/05 06:56:07;;;;;;;;;;;32.80;70.70;;;;;;5096083;28;19912;-66
2023/04/05 06:58:34;;;;;;;;;;;31.70;73.00;;;;;;5093068;28;20010;-65
2023/04/05 07:01:00;;;;;;;;;;;30.70;75.40;;;;;;5094326;28;20440;-65
2023/04/05 07:03:27;;;;;;;;;;;29.70;77.90;;;;;;5095678;28;19916;-70
2023/04/05 07:05:58;;;;;;;;;;;28.80;80.10;;;;;;5094862;28;19908;-70
2023/04/05 07:08:25;;;;;;;;;;;28.00;82.00;;;;;;5093158;28;19916;-65
2023/04/05 07:10:52;;;;;;;;;;;27.30;84.60;;;;;;5095721;28;20040;-64
2023/04/05 07:13:20;;;;;;;;;;;26.70;86.30;;;;;;5100162;28;19908;-68
2023/04/05 07:15:46;;;;;;;;;;;26.20;88.10;;;;;;5098194;28;19907;-66
2023/04/05 07:18:16;;;;;;;;;;;25.80;89.30;;;;;;5099197;28;20352;-68
2023/04/05 07:20:44;;;;;;;;;;;25.40;89.80;;;;;;5100243;28;19972;-65
2023/04/05 07:23:10;;;;;;;;;;;25.20;90.40;;;;;;5101398;28;19907;-66
2023/04/05 07:25:39;;;;;;;;;;;25.00;90.90;;;;;;5100089;28;19907;-63
2023/04/05 07:28:05;;;;;;;;;;;24.80;91.80;;;;;;5088546;28;19914;-62
2023/04/05 07:30:32;;;;;;;;;;;24.70;92.30;;;;;;5096681;28;20002;-64
2023/04/05 07:32:59;;;;;;;;;;;24.60;92.80;;;;;;5095332;28;19964;-66
2023/04/05 07:35:26;;;;;;;;;;;24.50;93.20;;;;;;5095914;28;19911;-64
2023/04/05 07:37:53;;;;;;;;;;;24.40;93.00;;;;;;5095495;28;20259;-64
2023/04/05 07:40:19;;;;;;;;;;;24.20;93.50;;;;;;5099815;28;19975;-66
2023/04/05 07:42:46;;;;;;;;;;;24.00;94.00;;;;;;5097637;28;20014;-65
2023/04/05 07:45:13;;;;;;;;;;;23.90;94.40;;;;;;5099826;28;19965;-65
2023/04/05 07:47:39;;;;;;;;;;;23.70;95.00;;;;;;5098313;28;20969;-66
2023/04/05 07:50:08;;;;;;;;;;;23.60;95.70;;;;;;5098666;28;19977;-66
2023/04/05 07:52:35;;;;;;;;;;;23.50;96.50;;;;;;5099597;28;19916;-66
2023/04/05 07:55:02;;;;;;;;;;;23.30;96.80;;;;;;5097206;28;19915;-66
2023/04/05 07:57:29;;;;;;;;;;;23.20;98.00;;;;;;5101359;28;19907;-64
2023/04/05 07:59:56;;;;;;;;;;;23.20;98.30;;;;;;5096273;28;19911;-70
2023/04/05 08:02:22;;;;;;;;;;;23.10;98.90;;;;;;5098549;28;19919;-68
2023/04/05 08:04:49;;;;;;;;;;;23.10;99.30;;;;;;5078952;28;19915;-65
2023/04/05 08:07:16;;;;;;;;;;;23.00;99.70;;;;;;5097863;28;19927;-70
2023/04/05 08:09:43;;;;;;;;;;;23.00;99.90;;;;;;5100144;28;19908;-65
2023/04/05 08:12:10;;;;;;;;;;;22.90;99.90;;;;;;5091862;28;19923;-65
2023/04/05 08:14:37;;;;;;;;;;;22.90;99.90;;;;;;5098097;28;19924;-68
2023/04/05 08:17:03;;;;;;;;;;;22.80;99.90;;;;;;5094843;28;19945;-69
2023/04/05 08:19:30;;;;;;;;;;;22.70;99.90;;;;;;5100571;28;19911;-70
2023/04/05 08:21:57;;;;;;;;;;;22.70;99.90;;;;;;5096731;28;20044;-67
2023/04/05 08:24:23;;;;;;;;;;;22.60;99.90;;;;;;5097229;28;20002;-69
2023/04/05 08:26:50;;;;;;;;;;;22.50;99.90;;;;;;5099313;28;19996;-69
2023/04/05 08:29:17;;;;;;;;;;;22.50;99.90;;;;;;5096967;28;20678;-67
2023/04/05 08:31:44;;;;;;;;;;;22.40;99.90;;;;;;5094574;28;20069;-67
2023/04/05 08:34:11;;;;;;;;;;;22.40;99.90;;;;;;5096135;28;19912;-66
2023/04/05 08:36:37;;;;;;;;;;;22.40;99.90;;;;;;5099067;28;19952;-64
2023/04/05 08:39:04;;;;;;;;;;;22.30;99.90;;;;;;5098481;28;19992;-63
2023/04/05 08:41:51;;;;;;;;;;;22.30;99.90;;;;;;5098297;28;19930;-65
2023/04/05 08:44:18;;;;;;;;;;;22.30;99.90;;;;;;5086072;28;19951;-66
2023/04/05 08:46:45;;;;;;;;;;;22.20;99.90;;;;;;5099676;28;19938;-64
2023/04/05 08:49:11;;;;;;;;;;;22.20;99.90;;;;;;5098826;28;19953;-65
2023/04/05 08:51:38;;;;;;;;;;;22.20;99.90;;;;;;5096729;28;19927;-66
2023/04/05 08:54:05;;;;;;;;;;;22.20;99.90;;;;;;5092856;28;20296;-69
2023/04/05 08:56:32;;;;;;;;;;;22.20;99.90;;;;;;5077578;28;19919;-68
2023/04/05 08:59:06;;;;;;;;;;;22.10;99.90;;;;;;5080622;28;19991;-67
2023/04/05 09:01:33;;;;;;;;;;;22.00;99.90;;;;;;5076933;28;19912;-65
2023/04/05 09:04:04;;;;;;;;;;;22.00;99.90;;;;;;5087041;28;19960;-66
2023/04/05 09:06:31;;;;;;;;;;;22.00;99.90;;;;;;5098649;28;20232;-66
2023/04/05 09:08:58;;;;;;;;;;;21.90;99.90;;;;;;5100041;28;19998;-67
2023/04/05 09:11:25;;;;;;;;;;;21.90;99.90;;;;;;5097576;28;20154;-64
2023/04/05 09:13:52;;;;;;;;;;;21.90;99.90;;;;;;5089162;28;19919;-66
2023/04/05 09:16:19;;;;;;;;;;;21.80;99.90;;;;;;5095443;28;19934;-71
2023/04/05 09:18:45;;;;;;;;;;;21.80;99.90;;;;;;5095715;28;20371;-68
2023/04/05 09:21:12;;;;;;;;;;;21.70;99.90;;;;;;5094838;28;19938;-69
2023/04/05 09:23:50;;;;;;;;;;;21.70;99.90;;;;;;5096593;28;19996;-66
2023/04/05 09:26:20;;;;;;;;;;;21.70;99.90;;;;;;5091466;28;19919;-67
2023/04/05 09:28:47;;;;;;;;;;;21.70;99.90;;;;;;5097663;28;19908;-70
2023/04/05 09:31:30;;;;;;;;;;;21.70;99.90;;;;;;5096639;28;19939;-67
2023/04/05 09:33:58;;;;;;;;;;;21.70;99.90;;;;;;5096358;28;19923;-65
2023/04/05 09:36:25;;;;;;;;;;;21.70;99.90;;;;;;5096744;28;19911;-64
2023/04/05 09:38:52;;;;;;;;;;;21.80;99.90;;;;;;5094910;28;19923;-68
2023/04/05 09:41:18;;;;;;;;;;;21.70;99.90;;;;;;5097391;28;19919;-67
2023/04/05 09:43:45;;;;;;;;;;;21.70;99.90;;;;;;5086470;28;19938;-66
2023/04/05 09:46:31;;;;;;;;;;;21.70;99.90;;;;;;5092288;28;20824;-66
2023/04/05 09:48:57;;;;;;;;;;;21.70;99.90;;;;;;5093197;28;20318;-67
2023/04/05 09:51:31;;;;;;;;;;;21.70;99.90;;;;;;5097015;28;19915;-64
2023/04/05 09:54:02;;;;;;;;;;;21.60;99.90;;;;;;5092126;28;20784;-69
2023/04/05 09:56:30;;;;;;;;;;;21.50;99.90;;;;;;5077137;28;20254;-66
2023/04/05 09:59:16;;;;;;;;;;;21.50;99.90;;;;;;5076002;28;19968;-67
2023/04/05 10:01:43;;;;;;;;;;;21.50;99.90;;;;;;5085409;28;19916;-67
2023/04/05 10:04:10;;;;;;;;;;;21.50;99.90;;;;;;5085137;28;20392;-65
2023/04/05 10:06:43;;;;;;;;;;;21.40;99.90;;;;;;5078628;28;19916;-63
2023/04/05 10:09:10;;;;;;;;;;;21.30;99.90;;;;;;5076390;28;20415;-65
2023/04/05 10:11:37;;;;;;;;;;;21.30;99.90;;;;;;5078338;28;20067;-66
2023/04/05 10:14:05;;;;;;;;;;;21.20;99.90;;;;;;5091257;28;19908;-64
2023/04/05 10:16:33;;;;;;;;;;;21.20;99.90;;;;;;5098098;28;19908;-68
2023/04/05 10:19:01;;;;;;;;;;;21.10;99.90;;;;;;5096354;28;19999;-67
2023/04/05 10:21:30;;;;;;;;;;;21.10;99.90;;;;;;5097987;28;20631;-65
2023/04/05 10:24:03;;;;;;;;;;;21.00;99.90;;;;;;5097107;28;19912;-66
2023/04/05 10:26:39;;;;;;;;;;;21.00;99.90;;;;;;5097817;28;20364;-67
2023/04/05 10:29:09;;;;;;;;;;;20.90;99.90;;;;;;5096480;28;19908;-65
2023/04/05 10:31:59;;;;;;;;;;;20.90;99.90;;;;;;5084825;28;20140;-64
2023/04/05 10:34:31;;;;;;;;;;;20.80;99.90;;;;;;5073631;28;19998;-65
2023/04/05 10:37:01;;;;;;;;;;;20.70;99.90;;;;;;5076471;28;19908;-65
2023/04/05 10:39:29;;;;;;;;;;;20.60;99.90;;;;;;5077975;28;19971;-66
2023/04/05 10:42:07;;;;;;;;;;;20.60;99.90;;;;;;5077554;28;19909;-66
2023/04/05 10:44:35;;;;;;;;;;;20.60;99.90;;;;;;5096853;28;20296;-65
2023/04/05 10:47:03;;;;;;;;;;;20.50;99.90;;;;;;5096166;28;19953;-69
2023/04/05 10:49:36;;;;;;;;;;;20.50;99.90;;;;;;5097535;28;19944;-67
2023/04/05 10:52:03;;;;;;;;;;;20.40;99.90;;;;;;5096176;28;19938;-69
2023/04/05 10:54:35;;;;;;;;;;;20.30;99.90;;;;;;5094410;28;19990;-70
2023/04/05 10:57:08;;;;;;;;;;;20.20;99.90;;;;;;5096557;28;19918;-65
2023/04/05 10:59:35;;;;;;;;;;;20.20;99.90;;;;;;5097185;28;19961;-67
2023/04/05 11:02:03;;;;;;;;;;;20.20;99.90;;;;;;5096667;28;19912;-67
2023/04/05 11:04:32;;;;;;;;;;;20.10;99.90;;;;;;5096100;28;20355;-66
2023/04/05 11:07:11;;;;;;;;;;;20.10;99.90;;;;;;5078734;28;19939;-68
2023/04/05 11:09:50;;;;;;;;;;;20.10;99.90;;;;;;5092002;28;19957;-69
2023/04/05 11:12:16;;;;;;;;;;;20.00;99.90;;;;;;5092541;28;19926;-65
2023/04/05 11:14:43;;;;;;;;;;;20.00;99.90;;;;;;5097490;28;19915;-67
2023/04/05 11:17:26;;;;;;;;;;;20.00;99.90;;;;;;5096011;28;19998;-67
2023/04/05 11:20:01;;;;;;;;;;;19.90;99.90;;;;;;5097267;28;20003;-64
2023/04/05 11:22:28;;;;;;;;;;;19.90;99.90;;;;;;5095131;28;19912;-64
2023/04/05 11:24:57;;;;;;;;;;;19.90;99.90;;;;;;5079921;28;19969;-64
2023/04/05 11:27:31;;;;;;;;;;;19.80;99.90;;;;;;5095755;28;19927;-69
2023/04/05 11:29:59;;;;;;;;;;;19.80;99.90;;;;;;5097124;28;19915;-65
2023/04/05 11:32:38;;;;;;;;;;;19.80;99.90;;;;;;5094444;28;19942;-68
2023/04/05 11:35:06;;;;;;;;;;;19.80;99.90;;;;;;5077246;28;19920;-68
2023/04/05 11:37:50;;;;;;;;;;;19.80;99.90;;;;;;5075271;28;20421;-63
2023/04/05 11:40:27;;;;;;;;;;;19.70;99.90;;;;;;5079027;28;19970;-69
2023/04/05 11:42:59;;;;;;;;;;;19.60;99.90;;;;;;5097242;28;20395;-67
2023/04/05 11:45:26;;;;;;;;;;;19.60;99.90;;;;;;5096862;28;19943;-65
2023/04/05 11:47:53;;;;;;;;;;;19.60;99.90;;;;;;5097953;28;20006;-68
2023/04/05 11:50:20;;;;;;;;;;;19.60;99.90;;;;;;5097162;28;19930;-68
2023/04/05 11:53:06;;;;;;;;;;;19.60;99.90;;;;;;5095697;28;19912;-65
2023/04/05 11:55:33;;;;;;;;;;;19.50;99.90;;;;;;5095204;28;19912;-66
2023/04/05 11:58:00;;;;;;;;;;;19.50;99.90;;;;;;5100432;28;19907;-64
2023/04/05 12:00:27;;;;;;;;;;;19.50;99.90;;;;;;5101257;28;20213;-65
2023/04/05 12:02:57;;;;;;;;;;;19.50;99.90;;;;;;5101500;28;19908;-65
2023/04/05 12:05:23;;;;;;;;;;;19.40;99.90;;;;;;5101247;28;19965;-63
2023/04/05 12:07:53;;;;;;;;;;;19.40;99.90;;;;;;5099502;28;19919;-65
2023/04/05 12:10:20;;;;;;;;;;;19.40;99.90;;;;;;5100187;28;19957;-65
2023/04/05 12:12:47;;;;;;;;;;;19.40;99.90;;;;;;5098785;28;20283;-66
2023/04/05 12:15:17;;;;;;;;;;;19.40;99.90;;;;;;5100545;28;19908;-68
2023/04/05 12:17:53;;;;;;;;;;;19.50;99.90;;;;;;5099314;28;19930;-68
2023/04/05 12:20:23;;;;;;;;;;;19.50;99.90;;;;;;5100332;28;20265;-67
2023/04/05 12:22:51;;;;;;;;;;;19.50;99.90;;;;;;5098957;28;19912;-69
2023/04/05 12:25:19;;;;;;;;;;;19.50;99.90;;;;;;5082498;28;19908;-69
2023/04/05 12:27:46;;;;;;;;;;;19.50;99.90;;;;;;5098994;28;19915;-68
2023/04/05 12:30:19;;;;;;;;;;;19.60;99.90;;;;;;5100744;28;20317;-68
2023/04/05 12:32:53;;;;;;;;;;;19.60;99.90;;;;;;5098808;28;20339;-68
2023/04/05 12:35:25;;;;;;;;;;;19.60;99.90;;;;;;5100177;28;19982;-65
2023/04/05 12:37:52;;;;;;;;;;;19.70;99.90;;;;;;5098568;28;20315;-69
2023/04/05 12:40:20;;;;;;;;;;;19.70;99.90;;;;;;5082156;28;19920;-65
2023/04/05 12:42:47;;;;;;;;;;;19.70;99.90;;;;;;5099030;28;19943;-64
2023/04/05 12:45:13;;;;;;;;;;;19.70;99.90;;;;;;5100608;28;19908;-65
2023/04/05 12:47:50;;;;;;;;;;;19.70;99.90;;;;;;5097548;28;19923;-64
2023/04/05 12:50:17;;;;;;;;;;;19.60;99.90;;;;;;5100610;28;20380;-67
2023/04/05 12:52:54;;;;;;;;;;;19.60;99.90;;;;;;5098481;28;19912;-65
2023/04/05 12:55:21;;;;;;;;;;;19.60;99.90;;;;;;5100082;28;19930;-63
2023/04/05 12:57:54;;;;;;;;;;;19.50;99.90;;;;;;5098159;28;19908;-67
2023/04/05 13:00:25;;;;;;;;;;;19.50;99.90;;;;;;5100142;28;19904;-65
2023/04/05 13:02:52;;;;;;;;;;;19.50;99.90;;;;;;5098533;28;20278;-67
2023/04/05 13:05:22;;;;;;;;;;;19.40;99.90;;;;;;5100442;28;19924;-65
2023/04/05 13:07:49;;;;;;;;;;;19.40;99.90;;;;;;5098141;28;19908;-68
2023/04/05 13:10:17;;;;;;;;;;;19.40;99.90;;;;;;5081581;28;19996;-66
2023/04/05 13:12:43;;;;;;;;;;;19.30;99.90;;;;;;5097994;28;19915;-65
2023/04/05 13:15:10;;;;;;;;;;;19.30;99.90;;;;;;5101149;28;20230;-66
2023/04/05 13:17:37;;;;;;;;;;;19.30;99.90;;;;;;5099724;28;19947;-68
2023/04/05 13:20:11;;;;;;;;;;;19.20;99.90;;;;;;5099133;28;19907;-66
2023/04/05 13:22:39;;;;;;;;;;;19.20;99.90;;;;;;5081377;28;20364;-70
2023/04/05 13:25:06;;;;;;;;;;;19.10;99.90;;;;;;5099425;28;20649;-70
2023/04/05 13:27:32;;;;;;;;;;;19.10;99.90;;;;;;5099514;28;20277;-69
2023/04/05 13:29:59;;;;;;;;;;;19.00;99.90;;;;;;5098013;28;19908;-68
2023/04/05 13:32:26;;;;;;;;;;;18.90;99.90;;;;;;5099521;28;19915;-63
2023/04/05 13:34:53;;;;;;;;;;;18.90;99.90;;;;;;5097449;28;19915;-64
2023/04/05 13:37:19;;;;;;;;;;;18.90;99.90;;;;;;5081176;28;19936;-63
2023/04/05 13:39:46;;;;;;;;;;;18.90;99.90;;;;;;5097646;28;19965;-64
2023/04/05 13:42:13;;;;;;;;;;;18.90;99.90;;;;;;5099460;28;19916;-65
2023/04/05 13:44:39;;;;;;;;;;;18.80;99.90;;;;;;5099321;28;19911;-68
2023/04/05 13:47:07;;;;;;;;;;;18.90;99.90;;;;;;5097861;28;19911;-67
2023/04/05 13:49:33;;;;;;;;;;;18.80;99.90;;;;;;5098624;28;19943;-71
2023/04/05 13:52:00;;;;;;;;;;;18.80;99.90;;;;;;5097284;28;19916;-68
2023/04/05 13:54:27;;;;;;;;;;;18.80;99.90;;;;;;5099283;28;19915;-70
2023/04/05 13:56:53;;;;;;;;;;;18.80;99.90;;;;;;5096981;28;20251;-67
2023/04/05 13:59:20;;;;;;;;;;;18.70;99.90;;;;;;5099245;28;20009;-69
2023/04/05 14:01:47;;;;;;;;;;;18.70;99.90;;;;;;5098821;28;19908;-66
2023/04/05 14:04:14;;;;;;;;;;;18.70;99.90;;;;;;5098604;28;19998;-69
2023/04/05 14:06:41;;;;;;;;;;;18.70;99.90;;;;;;5098836;28;19907;-65
2023/04/05 14:09:08;;;;;;;;;;;18.60;99.90;;;;;;5097058;28;19952;-70
2023/04/05 14:11:35;;;;;;;;;;;18.60;99.90;;;;;;5098623;28;19928;-65
2023/04/05 14:14:02;;;;;;;;;;;18.60;99.90;;;;;;5097296;28;19965;-66
2023/04/05 14:16:29;;;;;;;;;;;18.60;99.90;;;;;;5100202;28;19994;-69
2023/04/05 14:18:55;;;;;;;;;;;18.50;99.90;;;;;;5099973;28;19947;-71
2023/04/05 14:21:23;;;;;;;;;;;18.60;99.90;;;;;;5102179;28;19908;-69
2023/04/05 14:23:55;;;;;;;;;;;18.50;99.90;;;;;;5102339;28;19904;-69